sensor_id;sensor_type;location;lat;lon;timestamp;pressure;altitude;pressure_sealevel;temperature;humidity
9676;BME280;4876;42.656;23.292;2023-02-13T00:01:13;96035.25;;;0.65;81.84
9676;BME280;4876;42.656;23.292;2023-02-13T00:03:39;96033.31;;;0.47;82.97
9676;BME280;4876;42.656;23.292;2023-02-13T00:06:06;96041.28;;;0.45;84.05
9676;BME280;4876;42.656;23.292;2023-02-13T00:08:34;96036.88;;;0.52;82.18
9676;BME280;4876;42.656;23.292;2023-02-13T00:11:01;96044.88;;;0.44;82.09
9676;BME280;4876;42.656;23.292;2023-02-13T00:13:28;96044.50;;;0.34;83.20
9676;BME280;4876;42.656;23.292;2023-02-13T00:15:56;96047.13;;;0.21;83.91
9676;BME280;4876;42.656;23.292;2023-02-13T00:18:24;96041.91;;;0.28;85.00
9676;BME280;4876;42.656;23.292;2023-02-13T00:20:58;96045.09;;;0.23;85.07
9676;BME280;4876;42.656;23.292;2023-02-13T00:23:25;96048.09;;;0.26;85.90
9676;BME280;4876;42.656;23.292;2023-02-13T00:25:53;96054.03;;;0.40;85.47
9676;BME280;4876;42.656;23.292;2023-02-13T00:28:20;96048.44;;;0.37;85.20
9676;BME280;4876;42.656;23.292;2023-02-13T00:30:47;96053.03;;;0.41;84.68
9676;BME280;4876;42.656;23.292;2023-02-13T00:33:14;96050.44;;;0.41;83.78
9676;BME280;4876;42.656;23.292;2023-02-13T00:35:40;96051.63;;;0.45;84.17
9676;BME280;4876;42.656;23.292;2023-02-13T00:38:07;96056.03;;;0.38;84.39
9676;BME280;4876;42.656;23.292;2023-02-13T00:40:34;96057.66;;;0.26;85.48
9676;BME280;4876;42.656;23.292;2023-02-13T00:43:02;96050.88;;;0.38;85.45
9676;BME280;4876;42.656;23.292;2023-02-13T00:45:29;96051.28;;;0.22;85.55
9676;BME280;4876;42.656;23.292;2023-02-13T00:47:56;96060.84;;;0.15;87.52
9676;BME280;4876;42.656;23.292;2023-02-13T00:50:22;96056.28;;;0.10;87.83
9676;BME280;4876;42.656;23.292;2023-02-13T00:52:49;96057.25;;;0.16;87.88
9676;BME280;4876;42.656;23.292;2023-02-13T00:55:16;96057.84;;;0.38;87.43
9676;BME280;4876;42.656;23.292;2023-02-13T00:57:43;96063.38;;;0.41;86.80
9676;BME280;4876;42.656;23.292;2023-02-13T01:00:12;96067.94;;;0.52;86.00
9676;BME280;4876;42.656;23.292;2023-02-13T01:02:39;96067.31;;;0.64;85.84
9676;BME280;4876;42.656;23.292;2023-02-13T01:05:06;96070.91;;;0.63;84.77
9676;BME280;4876;42.656;23.292;2023-02-13T01:07:33;96067.91;;;0.59;84.30
9676;BME280;4876;42.656;23.292;2023-02-13T01:10:00;96066.53;;;0.57;83.86
9676;BME280;4876;42.656;23.292;2023-02-13T01:12:27;96072.75;;;0.36;84.33
9676;BME280;4876;42.656;23.292;2023-02-13T01:14:54;96067.59;;;0.29;85.46
9676;BME280;4876;42.656;23.292;2023-02-13T01:17:22;96062.38;;;0.42;85.57
9676;BME280;4876;42.656;23.292;2023-02-13T01:19:48;96064.38;;;0.40;85.27
9676;BME280;4876;42.656;23.292;2023-02-13T01:22:15;96071.16;;;0.35;85.10
9676;BME280;4876;42.656;23.292;2023-02-13T01:24:42;96070.41;;;0.21;86.27
9676;BME280;4876;42.656;23.292;2023-02-13T01:27:09;96063.44;;;0.08;87.09
9676;BME280;4876;42.656;23.292;2023-02-13T01:29:36;96070.44;;;0.01;88.53
9676;BME280;4876;42.656;23.292;2023-02-13T01:32:02;96065.25;;;-0.19;89.05
9676;BME280;4876;42.656;23.292;2023-02-13T01:34:31;96068.44;;;-0.30;91.10
9676;BME280;4876;42.656;23.292;2023-02-13T01:36:58;96066.25;;;-0.33;92.24
9676;BME280;4876;42.656;23.292;2023-02-13T01:39:27;96085.91;;;-0.19;92.99
9676;BME280;4876;42.656;23.292;2023-02-13T01:41:54;96073.59;;;-0.10;92.44
9676;BME280;4876;42.656;23.292;2023-02-13T01:44:47;96081.75;;;-0.07;93.14
9676;BME280;4876;42.656;23.292;2023-02-13T01:47:21;96078.97;;;-0.12;93.27
9676;BME280;4876;42.656;23.292;2023-02-13T01:49:58;96078.56;;;-0.02;93.37
9676;BME280;4876;42.656;23.292;2023-02-13T01:52:25;96079.19;;;0.00;92.67
9676;BME280;4876;42.656;23.292;2023-02-13T01:54:52;96089.13;;;-0.04;92.60
9676;BME280;4876;42.656;23.292;2023-02-13T01:57:21;96087.31;;;0.04;92.69
9676;BME280;4876;42.656;23.292;2023-02-13T01:59:53;96077.19;;;-0.18;92.23
9676;BME280;4876;42.656;23.292;2023-02-13T02:02:22;96097.44;;;0.12;92.66
9676;BME280;4876;42.656;23.292;2023-02-13T02:04:49;96091.09;;;0.08;92.25
9676;BME280;4876;42.656;23.292;2023-02-13T02:07:20;96090.69;;;0.17;92.34
9676;BME280;4876;42.656;23.292;2023-02-13T02:09:50;96079.53;;;0.30;90.43
9676;BME280;4876;42.656;23.292;2023-02-13T02:12:23;96079.97;;;0.14;90.70
9676;BME280;4876;42.656;23.292;2023-02-13T02:14:52;96079.34;;;0.25;91.59
9676;BME280;4876;42.656;23.292;2023-02-13T02:17:21;96078.94;;;0.21;90.73
9676;BME280;4876;42.656;23.292;2023-02-13T02:19:55;96081.53;;;0.21;90.87
9676;BME280;4876;42.656;23.292;2023-02-13T02:25:49;96073.94;;;0.46;89.24
9676;BME280;4876;42.656;23.292;2023-02-13T02:28:36;96083.50;;;0.39;89.92
9676;BME280;4876;42.656;23.292;2023-02-13T02:31:43;96075.53;;;0.34;90.01
9676;BME280;4876;42.656;23.292;2023-02-13T02:34:18;96068.75;;;0.46;89.77
9676;BME280;4876;42.656;23.292;2023-02-13T02:37:01;96070.75;;;0.44;88.76
9676;BME280;4876;42.656;23.292;2023-02-13T02:39:36;96078.94;;;0.35;89.21
9676;BME280;4876;42.656;23.292;2023-02-13T02:42:17;96077.19;;;0.09;90.21
9676;BME280;4876;42.656;23.292;2023-02-13T02:44:51;96089.31;;;0.02;91.23
9676;BME280;4876;42.656;23.292;2023-02-13T02:47:25;96085.72;;;0.16;91.58
9676;BME280;4876;42.656;23.292;2023-02-13T02:50:15;96071.22;;;0.08;91.13
9676;BME280;4876;42.656;23.292;2023-02-13T02:52:56;96100.22;;;0.37;90.38
9676;BME280;4876;42.656;23.292;2023-02-13T02:55:31;96105.75;;;0.53;89.80
9676;BME280;4876;42.656;23.292;2023-02-13T02:58:08;96102.63;;;0.38;88.35
9676;BME280;4876;42.656;23.292;2023-02-13T03:00:56;96107.19;;;0.36;89.09
9676;BME280;4876;42.656;23.292;2023-02-13T03:03:56;96114.56;;;0.39;89.41
9676;BME280;4876;42.656;23.292;2023-02-13T03:06:45;96104.19;;;0.39;88.47
9676;BME280;4876;42.656;23.292;2023-02-13T03:09:19;96103.16;;;0.53;88.73
9676;BME280;4876;42.656;23.292;2023-02-13T03:12:05;96102.34;;;0.60;87.03
9676;BME280;4876;42.656;23.292;2023-02-13T03:14:50;96107.50;;;0.73;86.43
9676;BME280;4876;42.656;23.292;2023-02-13T03:17:18;96110.28;;;0.78;86.07
9676;BME280;4876;42.656;23.292;2023-02-13T03:20:12;96103.53;;;0.70;85.69
9676;BME280;4876;42.656;23.292;2023-02-13T03:23:04;96101.56;;;0.66;86.03
9676;BME280;4876;42.656;23.292;2023-02-13T03:25:37;96104.72;;;0.68;85.58
9676;BME280;4876;42.656;23.292;2023-02-13T03:28:11;96099.78;;;0.60;84.95
9676;BME280;4876;42.656;23.292;2023-02-13T03:31:05;96110.13;;;0.53;85.22
9676;BME280;4876;42.656;23.292;2023-02-13T03:33:54;96106.19;;;0.50;86.33
9676;BME280;4876;42.656;23.292;2023-02-13T03:36:33;96112.91;;;0.65;86.04
9676;BME280;4876;42.656;23.292;2023-02-13T03:39:25;96114.91;;;0.63;85.88
9676;BME280;4876;42.656;23.292;2023-02-13T03:41:57;96115.69;;;0.70;86.03
9676;BME280;4876;42.656;23.292;2023-02-13T03:44:30;96113.09;;;0.70;85.22
9676;BME280;4876;42.656;23.292;2023-02-13T03:47:00;96105.75;;;0.60;85.69
9676;BME280;4876;42.656;23.292;2023-02-13T03:49:30;96101.34;;;0.67;85.78
9676;BME280;4876;42.656;23.292;2023-02-13T03:52:23;96110.94;;;0.53;86.22
9676;BME280;4876;42.656;23.292;2023-02-13T03:54:54;96103.38;;;0.59;86.48
9676;BME280;4876;42.656;23.292;2023-02-13T03:57:42;96098.81;;;0.47;86.86
9676;BME280;4876;42.656;23.292;2023-02-13T04:00:40;96096.19;;;0.61;86.45
9676;BME280;4876;42.656;23.292;2023-02-13T04:03:13;96099.38;;;0.49;86.78
9676;BME280;4876;42.656;23.292;2023-02-13T04:05:43;96098.00;;;0.53;86.55
9676;BME280;4876;42.656;23.292;2023-02-13T04:08:13;96095.81;;;0.37;87.61
9676;BME280;4876;42.656;23.292;2023-02-13T04:10:47;96105.97;;;0.52;87.46
9676;BME280;4876;42.656;23.292;2023-02-13T04:13:19;96105.56;;;0.55;86.52
9676;BME280;4876;42.656;23.292;2023-02-13T04:15:52;96099.03;;;0.39;86.45
9676;BME280;4876;42.656;23.292;2023-02-13T04:18:23;96108.78;;;0.44;86.07
9676;BME280;4876;42.656;23.292;2023-02-13T04:20:50;96115.94;;;0.35;86.80
9676;BME280;4876;42.656;23.292;2023-02-13T04:23:19;96110.97;;;0.40;86.48
9676;BME280;4876;42.656;23.292;2023-02-13T04:25:49;96113.53;;;0.47;85.99
9676;BME280;4876;42.656;23.292;2023-02-13T04:28:16;96106.34;;;0.56;85.83
9676;BME280;4876;42.656;23.292;2023-02-13T04:30:43;96080.13;;;0.32;85.55
9676;BME280;4876;42.656;23.292;2023-02-13T04:33:10;96111.69;;;0.67;85.13
9676;BME280;4876;42.656;23.292;2023-02-13T04:35:37;96114.69;;;0.71;84.50
9676;BME280;4876;42.656;23.292;2023-02-13T04:38:03;96104.31;;;0.71;83.99
9676;BME280;4876;42.656;23.292;2023-02-13T04:40:32;96103.75;;;0.69;84.43
9676;BME280;4876;42.656;23.292;2023-02-13T04:42:58;96107.31;;;0.68;83.91
9676;BME280;4876;42.656;23.292;2023-02-13T04:45:25;96085.19;;;0.72;83.54
9676;BME280;4876;42.656;23.292;2023-02-13T04:47:54;96103.31;;;0.72;83.46
9676;BME280;4876;42.656;23.292;2023-02-13T04:50:22;96099.75;;;0.66;83.77
9676;BME280;4876;42.656;23.292;2023-02-13T04:52:49;96099.78;;;0.60;83.39
9676;BME280;4876;42.656;23.292;2023-02-13T04:55:18;96101.97;;;0.49;83.62
9676;BME280;4876;42.656;23.292;2023-02-13T04:57:46;96112.53;;;0.54;84.07
9676;BME280;4876;42.656;23.292;2023-02-13T05:00:14;96110.53;;;0.57;83.98
9676;BME280;4876;42.656;23.292;2023-02-13T05:02:40;96119.50;;;0.47;84.56
9676;BME280;4876;42.656;23.292;2023-02-13T05:05:07;96116.69;;;0.56;84.23
9676;BME280;4876;42.656;23.292;2023-02-13T05:07:34;96131.03;;;0.65;84.49
9676;BME280;4876;42.656;23.292;2023-02-13T05:10:01;96128.25;;;0.60;84.12
9676;BME280;4876;42.656;23.292;2023-02-13T05:12:27;96131.41;;;0.68;84.33
9676;BME280;4876;42.656;23.292;2023-02-13T05:14:55;96126.97;;;0.89;83.32
9676;BME280;4876;42.656;23.292;2023-02-13T05:17:22;96123.50;;;0.57;83.47
9676;BME280;4876;42.656;23.292;2023-02-13T05:19:49;96128.47;;;0.51;84.98
9676;BME280;4876;42.656;23.292;2023-02-13T05:22:16;96134.84;;;0.62;84.80
9676;BME280;4876;42.656;23.292;2023-02-13T05:25:00;96134.84;;;0.36;84.82
9676;BME280;4876;42.656;23.292;2023-02-13T05:27:27;96132.88;;;0.44;86.04
9676;BME280;4876;42.656;23.292;2023-02-13T05:29:53;96134.44;;;0.59;85.35
9676;BME280;4876;42.656;23.292;2023-02-13T05:32:22;96132.00;;;0.70;84.54
9676;BME280;4876;42.656;23.292;2023-02-13T05:34:48;96139.00;;;0.70;84.54
9676;BME280;4876;42.656;23.292;2023-02-13T05:37:15;96144.34;;;0.82;84.20
9676;BME280;4876;42.656;23.292;2023-02-13T05:39:42;96139.34;;;0.80;83.71
9676;BME280;4876;42.656;23.292;2023-02-13T05:42:08;96140.25;;;1.05;81.85
9676;BME280;4876;42.656;23.292;2023-02-13T05:44:35;96141.81;;;1.20;81.00
9676;BME280;4876;42.656;23.292;2023-02-13T05:47:02;96142.69;;;1.00;80.59
9676;BME280;4876;42.656;23.292;2023-02-13T05:49:30;96151.09;;;0.89;80.94
9676;BME280;4876;42.656;23.292;2023-02-13T05:51:57;96149.50;;;0.88;82.08
9676;BME280;4876;42.656;23.292;2023-02-13T05:54:24;96151.31;;;0.68;82.78
9676;BME280;4876;42.656;23.292;2023-02-13T05:56:50;96151.53;;;0.60;83.33
9676;BME280;4876;42.656;23.292;2023-02-13T05:59:17;96148.75;;;0.54;84.34
9676;BME280;4876;42.656;23.292;2023-02-13T06:01:44;96156.75;;;0.33;85.10
9676;BME280;4876;42.656;23.292;2023-02-13T06:04:11;96146.41;;;0.13;85.66
9676;BME280;4876;42.656;23.292;2023-02-13T06:06:39;96160.72;;;0.42;85.43
9676;BME280;4876;42.656;23.292;2023-02-13T06:09:06;96157.13;;;0.57;84.87
9676;BME280;4876;42.656;23.292;2023-02-13T06:11:32;96151.50;;;0.79;83.60
9676;BME280;4876;42.656;23.292;2023-02-13T06:13:59;96157.09;;;0.83;82.95
9676;BME280;4876;42.656;23.292;2023-02-13T06:16:26;96165.44;;;0.85;83.10
9676;BME280;4876;42.656;23.292;2023-02-13T06:18:55;96149.53;;;0.75;82.79
9676;BME280;4876;42.656;23.292;2023-02-13T06:21:22;96171.84;;;0.49;83.76
9676;BME280;4876;42.656;23.292;2023-02-13T06:23:50;96168.28;;;0.50;83.88
9676;BME280;4876;42.656;23.292;2023-02-13T06:26:17;96172.44;;;0.78;83.41
9676;BME280;4876;42.656;23.292;2023-02-13T06:28:44;96164.66;;;0.78;83.18
9676;BME280;4876;42.656;23.292;2023-02-13T06:31:11;96176.22;;;0.56;83.32
9676;BME280;4876;42.656;23.292;2023-02-13T06:33:37;96183.59;;;0.72;84.03
9676;BME280;4876;42.656;23.292;2023-02-13T06:36:05;96179.63;;;0.63;83.44
9676;BME280;4876;42.656;23.292;2023-02-13T06:38:32;96184.19;;;0.61;83.57
9676;BME280;4876;42.656;23.292;2023-02-13T06:41:00;96178.81;;;0.82;83.58
9676;BME280;4876;42.656;23.292;2023-02-13T06:43:27;96181.75;;;0.86;82.44
9676;BME280;4876;42.656;23.292;2023-02-13T06:45:54;96177.41;;;0.73;82.71
9676;BME280;4876;42.656;23.292;2023-02-13T06:48:21;96189.34;;;0.87;82.66
9676;BME280;4876;42.656;23.292;2023-02-13T06:50:47;96190.13;;;0.94;81.41
9676;BME280;4876;42.656;23.292;2023-02-13T06:53:17;96190.38;;;0.60;82.14
9676;BME280;4876;42.656;23.292;2023-02-13T06:55:44;96186.44;;;1.22;92.28
9676;BME280;4876;42.656;23.292;2023-02-13T06:58:12;96182.56;;;0.79;86.39
9676;BME280;4876;42.656;23.292;2023-02-13T07:00:39;96178.38;;;0.85;83.73
9676;BME280;4876;42.656;23.292;2023-02-13T07:03:06;96173.34;;;1.03;82.12
9676;BME280;4876;42.656;23.292;2023-02-13T07:05:34;96169.44;;;0.81;81.60
9676;BME280;4876;42.656;23.292;2023-02-13T07:08:01;96176.19;;;0.95;82.39
9676;BME280;4876;42.656;23.292;2023-02-13T07:10:27;96178.56;;;0.90;81.25
9676;BME280;4876;42.656;23.292;2023-02-13T07:12:54;96175.78;;;0.85;81.45
9676;BME280;4876;42.656;23.292;2023-02-13T07:15:22;96175.16;;;0.96;80.92
9676;BME280;4876;42.656;23.292;2023-02-13T07:17:54;96184.94;;;0.94;80.33
9676;BME280;4876;42.656;23.292;2023-02-13T07:20:21;96174.59;;;0.94;80.66
9676;BME280;4876;42.656;23.292;2023-02-13T07:22:48;96186.13;;;0.98;80.47
9676;BME280;4876;42.656;23.292;2023-02-13T07:25:15;96188.47;;;1.20;80.06
9676;BME280;4876;42.656;23.292;2023-02-13T07:27:42;96194.88;;;0.97;80.62
9676;BME280;4876;42.656;23.292;2023-02-13T07:30:09;96188.91;;;1.03;80.07
9676;BME280;4876;42.656;23.292;2023-02-13T07:32:37;96188.91;;;1.03;79.78
9676;BME280;4876;42.656;23.292;2023-02-13T07:35:05;96186.56;;;0.89;80.18
9676;BME280;4876;42.656;23.292;2023-02-13T07:37:31;96189.16;;;0.82;80.54
9676;BME280;4876;42.656;23.292;2023-02-13T07:39:58;96190.72;;;0.96;80.70
9676;BME280;4876;42.656;23.292;2023-02-13T07:42:25;96187.75;;;0.79;80.47
9676;BME280;4876;42.656;23.292;2023-02-13T07:44:52;96186.19;;;0.65;81.52
9676;BME280;4876;42.656;23.292;2023-02-13T07:47:18;96188.56;;;0.73;81.29
9676;BME280;4876;42.656;23.292;2023-02-13T07:49:47;96186.16;;;0.78;81.44
9676;BME280;4876;42.656;23.292;2023-02-13T07:52:13;96184.56;;;0.84;81.52
9676;BME280;4876;42.656;23.292;2023-02-13T07:54:40;96185.75;;;0.88;80.73
9676;BME280;4876;42.656;23.292;2023-02-13T07:57:12;96189.28;;;1.14;81.23
9676;BME280;4876;42.656;23.292;2023-02-13T07:59:38;96187.00;;;1.37;79.23
9676;BME280;4876;42.656;23.292;2023-02-13T08:02:05;96186.38;;;1.42;78.66
9676;BME280;4876;42.656;23.292;2023-02-13T08:04:32;96193.13;;;1.49;77.89
9676;BME280;4876;42.656;23.292;2023-02-13T08:07:00;96193.97;;;1.43;77.95
9676;BME280;4876;42.656;23.292;2023-02-13T08:09:27;96184.94;;;1.52;77.58
9676;BME280;4876;42.656;23.292;2023-02-13T08:12:11;96193.91;;;1.56;77.44
9676;BME280;4876;42.656;23.292;2023-02-13T08:14:38;96189.41;;;1.77;76.96
9676;BME280;4876;42.656;23.292;2023-02-13T08:17:05;96187.81;;;1.76;76.47
9676;BME280;4876;42.656;23.292;2023-02-13T08:19:31;96189.56;;;1.82;76.38
9676;BME280;4876;42.656;23.292;2023-02-13T08:22:00;96183.19;;;1.78;76.22
9676;BME280;4876;42.656;23.292;2023-02-13T08:24:27;96191.72;;;1.85;76.71
9676;BME280;4876;42.656;23.292;2023-02-13T08:26:55;96197.19;;;2.08;75.71
9676;BME280;4876;42.656;23.292;2023-02-13T08:29:21;96190.41;;;2.07;74.82
9676;BME280;4876;42.656;23.292;2023-02-13T08:31:48;96189.75;;;1.87;76.37
9676;BME280;4876;42.656;23.292;2023-02-13T08:34:15;96185.03;;;1.71;76.29
9676;BME280;4876;42.656;23.292;2023-02-13T08:36:42;96184.41;;;1.37;77.83
9676;BME280;4876;42.656;23.292;2023-02-13T08:39:10;96185.44;;;1.74;77.92
9676;BME280;4876;42.656;23.292;2023-02-13T08:41:37;96183.94;;;1.85;76.70
9676;BME280;4876;42.656;23.292;2023-02-13T08:44:04;96189.00;;;1.73;77.24
9676;BME280;4876;42.656;23.292;2023-02-13T08:46:31;96192.16;;;1.82;76.75
9676;BME280;4876;42.656;23.292;2023-02-13T08:48:57;96191.66;;;1.98;76.29
9676;BME280;4876;42.656;23.292;2023-02-13T08:51:24;96192.81;;;1.71;76.37
9676;BME280;4876;42.656;23.292;2023-02-13T08:53:51;96187.88;;;1.63;76.15
9676;BME280;4876;42.656;23.292;2023-02-13T08:56:19;96201.59;;;1.70;76.99
9676;BME280;4876;42.656;23.292;2023-02-13T08:58:47;96193.53;;;1.84;76.04
9676;BME280;4876;42.656;23.292;2023-02-13T09:01:14;96190.63;;;2.06;75.35
9676;BME280;4876;42.656;23.292;2023-02-13T09:03:41;96191.94;;;2.15;75.00
9676;BME280;4876;42.656;23.292;2023-02-13T09:06:08;96188.56;;;2.14;74.81
9676;BME280;4876;42.656;23.292;2023-02-13T09:08:35;96184.59;;;2.37;74.40
9676;BME280;4876;42.656;23.292;2023-02-13T09:11:03;96192.22;;;2.32;73.70
9676;BME280;4876;42.656;23.292;2023-02-13T09:13:32;96192.41;;;2.37;74.03
9676;BME280;4876;42.656;23.292;2023-02-13T09:16:02;96196.88;;;2.48;73.53
9676;BME280;4876;42.656;23.292;2023-02-13T09:18:29;96197.94;;;2.65;73.28
9676;BME280;4876;42.656;23.292;2023-02-13T09:20:57;96165.91;;;2.72;72.54
9676;BME280;4876;42.656;23.292;2023-02-13T09:23:25;96180.06;;;2.76;72.13
9676;BME280;4876;42.656;23.292;2023-02-13T09:25:52;96162.47;;;2.96;71.13
9676;BME280;4876;42.656;23.292;2023-02-13T09:28:19;96191.75;;;2.85;70.51
9676;BME280;4876;42.656;23.292;2023-02-13T09:30:47;96180.63;;;2.78;71.05
9676;BME280;4876;42.656;23.292;2023-02-13T09:33:14;96178.91;;;2.90;70.96
9676;BME280;4876;42.656;23.292;2023-02-13T09:35:41;96169.56;;;3.07;70.56
9676;BME280;4876;42.656;23.292;2023-02-13T09:38:09;96170.84;;;2.80;71.17
9676;BME280;4876;42.656;23.292;2023-02-13T09:40:40;96160.03;;;3.01;71.27
9676;BME280;4876;42.656;23.292;2023-02-13T09:43:13;96162.31;;;3.09;71.29
9676;BME280;4876;42.656;23.292;2023-02-13T09:45:42;96172.88;;;3.14;70.57
9676;BME280;4876;42.656;23.292;2023-02-13T09:48:19;96149.78;;;2.88;71.23
9676;BME280;4876;42.656;23.292;2023-02-13T09:50:50;96156.69;;;2.94;71.54
9676;BME280;4876;42.656;23.292;2023-02-13T09:53:20;96146.38;;;3.24;70.68
9676;BME280;4876;42.656;23.292;2023-02-13T09:55:55;96155.66;;;3.32;70.01
9676;BME280;4876;42.656;23.292;2023-02-13T09:58:35;96145.16;;;3.08;71.51
9676;BME280;4876;42.656;23.292;2023-02-13T10:01:16;96152.78;;;3.03;71.11
9676;BME280;4876;42.656;23.292;2023-02-13T10:03:48;96141.25;;;2.62;72.94
9676;BME280;4876;42.656;23.292;2023-02-13T10:06:22;96146.22;;;2.64;72.90
9676;BME280;4876;42.656;23.292;2023-02-13T10:09:05;96136.09;;;2.56;74.35
9676;BME280;4876;42.656;23.292;2023-02-13T10:11:48;96138.59;;;2.44;73.41
9676;BME280;4876;42.656;23.292;2023-02-13T10:14:22;96136.81;;;2.45;73.58
9676;BME280;4876;42.656;23.292;2023-02-13T10:16:54;96131.56;;;2.26;74.83
9676;BME280;4876;42.656;23.292;2023-02-13T10:19:31;96126.44;;;2.63;73.55
9676;BME280;4876;42.656;23.292;2023-02-13T10:22:04;96115.84;;;2.83;73.67
9676;BME280;4876;42.656;23.292;2023-02-13T10:24:35;96103.56;;;2.90;73.76
9676;BME280;4876;42.656;23.292;2023-02-13T10:27:15;96108.53;;;2.91;73.42
9676;BME280;4876;42.656;23.292;2023-02-13T10:29:45;96103.16;;;2.93;74.06
9676;BME280;4876;42.656;23.292;2023-02-13T10:32:45;96096.22;;;2.87;73.82
9676;BME280;4876;42.656;23.292;2023-02-13T10:35:22;96096.22;;;2.87;73.51
9676;BME280;4876;42.656;23.292;2023-02-13T10:37:53;96089.53;;;3.09;72.19
9676;BME280;4876;42.656;23.292;2023-02-13T10:40:22;96085.50;;;3.13;71.73
9676;BME280;4876;42.656;23.292;2023-02-13T10:42:57;96087.69;;;3.28;71.65
9676;BME280;4876;42.656;23.292;2023-02-13T10:45:43;96090.53;;;3.27;71.45
9676;BME280;4876;42.656;23.292;2023-02-13T10:48:26;96077.91;;;3.30;70.98
9676;BME280;4876;42.656;23.292;2023-02-13T10:51:02;96082.25;;;3.18;72.09
9676;BME280;4876;42.656;23.292;2023-02-13T10:53:43;96071.22;;;3.34;70.81
9676;BME280;4876;42.656;23.292;2023-02-13T10:56:23;96065.03;;;3.47;70.43
9676;BME280;4876;42.656;23.292;2023-02-13T10:59:04;96065.91;;;3.71;70.35
9676;BME280;4876;42.656;23.292;2023-02-13T11:01:36;96071.66;;;3.61;68.92
9676;BME280;4876;42.656;23.292;2023-02-13T11:04:07;96063.88;;;3.61;69.48
9676;BME280;4876;42.656;23.292;2023-02-13T11:06:38;96046.56;;;3.78;67.82
9676;BME280;4876;42.656;23.292;2023-02-13T11:09:07;96056.28;;;3.71;67.88
9676;BME280;4876;42.656;23.292;2023-02-13T11:11:39;96053.47;;;3.85;67.89
9676;BME280;4876;42.656;23.292;2023-02-13T11:14:14;96053.84;;;3.88;67.77
9676;BME280;4876;42.656;23.292;2023-02-13T11:16:54;96023.84;;;3.97;66.38
9676;BME280;4876;42.656;23.292;2023-02-13T11:19:25;96046.94;;;4.05;65.72
9676;BME280;4876;42.656;23.292;2023-02-13T11:21:58;96032.78;;;4.13;65.84
9676;BME280;4876;42.656;23.292;2023-02-13T11:24:28;96013.00;;;4.00;66.20
9676;BME280;4876;42.656;23.292;2023-02-13T11:27:00;96023.63;;;4.11;65.98
9676;BME280;4876;42.656;23.292;2023-02-13T11:29:32;96023.41;;;4.12;64.72
9676;BME280;4876;42.656;23.292;2023-02-13T11:32:06;96014.88;;;4.28;65.41
9676;BME280;4876;42.656;23.292;2023-02-13T11:34:36;96014.09;;;4.40;65.79
9676;BME280;4876;42.656;23.292;2023-02-13T11:37:15;96006.94;;;4.47;65.53
9676;BME280;4876;42.656;23.292;2023-02-13T11:39:43;96010.66;;;4.63;64.59
9676;BME280;4876;42.656;23.292;2023-02-13T11:42:12;95996.19;;;4.83;64.24
9676;BME280;4876;42.656;23.292;2023-02-13T11:44:41;95995.97;;;4.85;62.56
9676;BME280;4876;42.656;23.292;2023-02-13T11:47:08;95997.66;;;4.91;62.78
9676;BME280;4876;42.656;23.292;2023-02-13T11:49:36;95982.34;;;4.95;62.68
9676;BME280;4876;42.656;23.292;2023-02-13T11:52:05;95982.22;;;5.18;62.25
9676;BME280;4876;42.656;23.292;2023-02-13T11:54:35;95973.47;;;5.24;61.61
9676;BME280;4876;42.656;23.292;2023-02-13T11:57:17;95964.66;;;5.13;60.19
9676;BME280;4876;42.656;23.292;2023-02-13T11:59:46;95959.16;;;5.10;60.28
9676;BME280;4876;42.656;23.292;2023-02-13T12:02:16;95961.38;;;5.18;60.31
9676;BME280;4876;42.656;23.292;2023-02-13T12:04:43;95960.72;;;5.11;60.55
9676;BME280;4876;42.656;23.292;2023-02-13T12:07:15;95959.31;;;5.03;60.87
9676;BME280;4876;42.656;23.292;2023-02-13T12:09:45;95950.53;;;5.09;61.23
9676;BME280;4876;42.656;23.292;2023-02-13T12:12:18;95941.47;;;5.29;60.58
9676;BME280;4876;42.656;23.292;2023-02-13T12:14:45;95951.84;;;5.40;60.18
9676;BME280;4876;42.656;23.292;2023-02-13T12:17:15;95931.50;;;5.43;59.54
9676;BME280;4876;42.656;23.292;2023-02-13T12:19:44;95870.34;;;5.17;59.95
9676;BME280;4876;42.656;23.292;2023-02-13T12:22:28;95940.19;;;5.65;59.44
9676;BME280;4876;42.656;23.292;2023-02-13T12:28:13;95937.97;;;5.57;59.36
9676;BME280;4876;42.656;23.292;2023-02-13T12:31:05;95943.03;;;5.80;58.94
9676;BME280;4876;42.656;23.292;2023-02-13T12:33:55;95935.28;;;5.85;57.68
9676;BME280;4876;42.656;23.292;2023-02-13T12:36:28;95910.31;;;5.39;57.58
9676;BME280;4876;42.656;23.292;2023-02-13T12:39:14;95908.03;;;5.59;57.55
9676;BME280;4876;42.656;23.292;2023-02-13T12:41:48;95926.28;;;5.59;57.26
9676;BME280;4876;42.656;23.292;2023-02-13T12:44:34;95924.53;;;5.65;57.45
9676;BME280;4876;42.656;23.292;2023-02-13T12:47:12;95920.06;;;5.82;57.25
9676;BME280;4876;42.656;23.292;2023-02-13T12:49:54;95907.78;;;5.61;56.79
9676;BME280;4876;42.656;23.292;2023-02-13T12:52:39;95906.25;;;5.82;56.77
9676;BME280;4876;42.656;23.292;2023-02-13T12:55:32;95906.63;;;5.90;56.82
9676;BME280;4876;42.656;23.292;2023-02-13T12:58:18;95898.09;;;5.95;56.76
9676;BME280;4876;42.656;23.292;2023-02-13T13:00:56;95902.84;;;5.64;56.80
9676;BME280;4876;42.656;23.292;2023-02-13T13:03:34;95905.19;;;5.83;57.26
9676;BME280;4876;42.656;23.292;2023-02-13T13:06:32;95892.06;;;5.94;56.30
9676;BME280;4876;42.656;23.292;2023-02-13T13:09:24;95903.09;;;5.97;55.92
9676;BME280;4876;42.656;23.292;2023-02-13T13:12:07;95896.94;;;6.08;55.76
9676;BME280;4876;42.656;23.292;2023-02-13T13:14:42;95900.16;;;5.93;55.79
9676;BME280;4876;42.656;23.292;2023-02-13T13:17:24;95894.94;;;5.76;56.77
9676;BME280;4876;42.656;23.292;2023-02-13T13:20:02;95894.94;;;5.76;56.47
9676;BME280;4876;42.656;23.292;2023-02-13T13:22:43;95887.78;;;5.88;56.28
9676;BME280;4876;42.656;23.292;2023-02-13T13:25:17;95881.72;;;5.83;56.47
9676;BME280;4876;42.656;23.292;2023-02-13T13:27:51;95880.06;;;5.93;56.07
9676;BME280;4876;42.656;23.292;2023-02-13T13:30:21;95872.53;;;5.97;56.57
9676;BME280;4876;42.656;23.292;2023-02-13T13:32:54;95877.66;;;6.09;56.58
9676;BME280;4876;42.656;23.292;2023-02-13T13:35:23;95872.13;;;5.88;56.26
9676;BME280;4876;42.656;23.292;2023-02-13T13:37:54;95868.97;;;5.86;56.58
9676;BME280;4876;42.656;23.292;2023-02-13T13:40:36;95879.84;;;5.78;56.81
9676;BME280;4876;42.656;23.292;2023-02-13T13:43:15;95880.56;;;5.74;56.95
9676;BME280;4876;42.656;23.292;2023-02-13T13:45:46;95871.94;;;5.73;56.99
9676;BME280;4876;42.656;23.292;2023-02-13T13:48:38;95871.84;;;5.85;56.61
9676;BME280;4876;42.656;23.292;2023-02-13T13:51:15;95870.72;;;5.98;56.76
9676;BME280;4876;42.656;23.292;2023-02-13T13:54:18;95867.84;;;5.99;56.21